Map

Track Data

SID SEASON NUMBER BASIN SUBBASIN NAME ISO_TIME NATURE LAT LON WMO_WIND WMO_PRES WMO_AGENCY TRACK_TYPE DIST2LAND LANDFALL IFLAG USA_AGENCY USA_ATCF_ID USA_LAT USA_LON USA_RECORD USA_STATUS USA_WIND USA_PRES USA_SSHS USA_R34_NE USA_R34_SE USA_R34_SW USA_R34_NW USA_R50_NE USA_R50_SE USA_R50_SW USA_R50_NW USA_R64_NE USA_R64_SE USA_R64_SW USA_R64_NW USA_POCI USA_ROCI USA_RMW USA_EYE TOKYO_LAT TOKYO_LON TOKYO_GRADE TOKYO_WIND TOKYO_PRES TOKYO_R50_DIR TOKYO_R50_LONG TOKYO_R50_SHORT TOKYO_R30_DIR TOKYO_R30_LONG TOKYO_R30_SHORT TOKYO_LAND CMA_LAT CMA_LON CMA_CAT CMA_WIND CMA_PRES HKO_LAT HKO_LON HKO_CAT HKO_WIND HKO_PRES NEWDELHI_LAT NEWDELHI_LON NEWDELHI_GRADE NEWDELHI_WIND NEWDELHI_PRES NEWDELHI_CI NEWDELHI_DP NEWDELHI_POCI REUNION_LAT REUNION_LON REUNION_TYPE REUNION_WIND REUNION_PRES REUNION_TNUM REUNION_CI REUNION_RMW REUNION_R34_NE REUNION_R34_SE REUNION_R34_SW REUNION_R34_NW REUNION_R50_NE REUNION_R50_SE REUNION_R50_SW REUNION_R50_NW REUNION_R64_NE REUNION_R64_SE REUNION_R64_SW REUNION_R64_NW BOM_LAT BOM_LON BOM_TYPE BOM_WIND BOM_PRES BOM_TNUM BOM_CI BOM_RMW BOM_R34_NE BOM_R34_SE BOM_R34_SW BOM_R34_NW BOM_R50_NE BOM_R50_SE BOM_R50_SW BOM_R50_NW BOM_R64_NE BOM_R64_SE BOM_R64_SW BOM_R64_NW BOM_ROCI BOM_POCI BOM_EYE BOM_POS_METHOD BOM_PRES_METHOD NADI_LAT NADI_LON NADI_CAT NADI_WIND NADI_PRES WELLINGTON_LAT WELLINGTON_LON WELLINGTON_WIND WELLINGTON_PRES DS824_LAT DS824_LON DS824_STAGE DS824_WIND DS824_PRES TD9636_LAT TD9636_LON TD9636_STAGE TD9636_WIND TD9636_PRES TD9635_LAT TD9635_LON TD9635_WIND TD9635_PRES TD9635_ROCI NEUMANN_LAT NEUMANN_LON NEUMANN_CLASS NEUMANN_WIND NEUMANN_PRES MLC_LAT MLC_LON MLC_CLASS MLC_WIND MLC_PRES USA_GUST BOM_GUST BOM_GUST_PER REUNION_GUST REUNION_GUST_PER USA_SEAHGT USA_SEARAD_NE USA_SEARAD_SE USA_SEARAD_SW USA_SEARAD_NW STORM_SPEED STORM_DIR
1928081S07099 1928 21 SI WA NOT_NAMED 1928-03-20 18:00:00 NR -6.80000 99.0000 main 481 481 __________O___ -1 -6.80000 99.0000 7 3 241
1928081S07099 1928 21 SI WA NOT_NAMED 1928-03-20 21:00:00 NR -6.86709 98.8780 main 497 497 __________P___ -1 -6.86709 98.8780 7 3 239
1928081S07099 1928 21 SI WA NOT_NAMED 1928-03-21 00:00:00 NR -6.95734 98.7348 main 521 521 __________P___ -1 -6.95734 98.7348 7 4 235
1928081S07099 1928 21 SI WA NOT_NAMED 1928-03-21 03:00:00 NR -7.09393 98.5492 main 545 545 __________P___ -1 -7.09393 98.5492 7 20 233
1928081S07099 1928 21 SI WA NOT_NAMED 1928-03-21 06:00:00 NR -8.13333 97.1333 main 736 736 _____O____O___ -1 -9.80000 94.4000 99 9.90000 -7.30000 98.3000 7 26 232
1928081S07099 1928 21 SI WA NOT_NAMED 1928-03-21 09:00:00 NR -8.71308 96.4472 main 828 828 _____P____P___ -1 -9.77783 94.4790 99 -7.59111 97.9745 7 14 227
1928081S07099 1928 21 SI WA NOT_NAMED 1928-03-21 12:00:00 NR -9.10471 96.0613 main 882 882 _____P____P___ -1 -9.75775 94.5599 99 -7.95276 97.5951 7 9 221
1928081S07099 1928 21 SI WA NOT_NAMED 1928-03-21 15:00:00 NR -9.39801 95.8345 main 926 926 _____P____P___ -1 -9.74190 94.6449 99 -8.36300 97.1932 7 6 211
1928081S07099 1928 21 SI WA NOT_NAMED 1928-03-21 18:00:00 NR -9.57747 95.7786 main 947 947 _____P____O___ -1 -9.73239 94.7359 99 -8.80000 96.8000 7 4 197
1928081S07099 1928 21 SI WA NOT_NAMED 1928-03-21 21:00:00 NR -9.77106 95.7221 main 972 972 _____P____P___ -1 -9.73134 94.8348 99 -9.25690 96.4163 7 4 196
1928081S07099 1928 21 SI WA NOT_NAMED 1928-03-22 00:00:00 NR -9.98195 95.6647 main 991 991 _____P____P___ -1 -9.74085 94.9438 99 -9.73009 96.0531 7 5 194
1928081S07099 1928 21 SI WA NOT_NAMED 1928-03-22 03:00:00 NR -10.2046 95.6113 main 1014 1014 _____P____P___ -1 -9.76304 95.0649 99 -10.1882 95.7383 7 5 192
1928081S07099 1928 21 SI WA NOT_NAMED 1928-03-22 06:00:00 NR -10.4333 95.5667 main 1029 1029 _____O____O___ -1 -9.80000 95.2000 99 9.90000 -10.6000 95.5000 7 5 189
1928081S07099 1928 21 SI WA NOT_NAMED 1928-03-22 09:00:00 NR -10.6622 95.5365 main 1061 1061 _____P____P___ -1 -9.85388 95.3492 99 -10.9251 95.3542 7 5 186
1928081S07099 1928 21 SI WA NOT_NAMED 1928-03-22 12:00:00 NR -10.8972 95.5130 main 1077 1077 _____P____P___ -1 -9.92695 95.5044 99 -11.2022 95.2870 7 5 185
1928081S07099 1928 21 SI WA NOT_NAMED 1928-03-22 15:00:00 NR -11.1369 95.4908 main 1093 1093 _____P____P___ -1 -10.0215 95.6557 99 -11.4533 95.2763 7 5 185
1928081S07099 1928 21 SI WA NOT_NAMED 1928-03-22 18:00:00 NR -11.3800 95.4643 main 1117 1117 _____P____O___ -1 -10.1400 95.7929 99 -11.7000 95.3000 7 5 189
1928081S07099 1928 21 SI WA NOT_NAMED 1928-03-22 21:00:00 NR -11.6268 95.4118 main 1141 1141 _____P____P___ -1 -10.2847 95.9060 99 -11.9627 95.2890 7 4 188
1928081S07099 1928 21 SI WA NOT_NAMED 1928-03-23 00:00:00 NR -11.7777 95.4077 main 1158 1158 _____P____P___ -1 -10.4580 95.9850 99 -12.2274 95.3104 7 3 171
1928081S07099 1928 21 SI WA NOT_NAMED 1928-03-23 03:00:00 NR -11.9110 95.4558 main 1159 1159 _____P____P___ -1 -10.6623 96.0197 99 -12.5033 95.3766 7 3 147
1928081S07099 1928 21 SI WA NOT_NAMED 1928-03-23 06:00:00 NR -12.0333 95.5778 main 1160 1160 _____O____O___ -1 -10.9000 96.0000 99 9.90000 -12.8000 95.5000 7 4 132
1928081S07099 1928 21 SI WA NOT_NAMED 1928-03-23 09:00:00 NR -12.1840 95.7691 main 1163 1163 _____P____P___ -1 -11.2153 95.8783 99 -13.1526 95.6599 7 6 158
1928081S07099 1928 21 SI WA NOT_NAMED 1928-03-23 12:00:00 NR -12.5470 95.7896 main 1188 1188 _____P____P___ -1 -11.5719 95.6993 99 -13.5222 95.8799 7 7 176
1928081S07099 1928 21 SI WA NOT_NAMED 1928-03-23 15:00:00 NR -12.9174 95.8183 main 1222 1222 _____P____P___ -1 -11.9542 95.4768 99 -13.8806 96.1599 7 7 174
1928081S07099 1928 21 SI WA NOT_NAMED 1928-03-23 18:00:00 NR -13.2731 95.8622 main 1250 1250 _____P____O___ -1 -12.3463 95.2245 99 -14.2000 96.5000 7 7 171
1928081S07099 1928 21 SI WA NOT_NAMED 1928-03-23 21:00:00 NR -13.5961 95.9269 main 1271 1271 _____P____P___ -1 -12.7326 94.9565 99 -14.4596 96.8974 7 5 184
1928081S07099 1928 21 SI WA NOT_NAMED 1928-03-24 00:00:00 NR -13.7707 95.8238 main 1293 1293 _____P____P___ -1 -13.0973 94.6869 99 -14.6685 97.3397 7 5 230
1928081S07099 1928 21 SI WA NOT_NAMED 1928-03-24 03:00:00 NR -13.8977 95.5573 main 1317 1317 _____P____P___ -1 -13.4250 94.4299 99 -14.8431 97.8122 7 8 256
1928081S07099 1928 21 SI WA NOT_NAMED 1928-03-24 06:00:00 NR -13.9600 95.0200 main 1372 1372 _____O____O___ -1 -13.7000 94.2000 99 9.90000 -15.0000 98.3000 7 15 269
1928081S07099 1928 21 SI WA NOT_NAMED 1928-03-24 09:00:00 NR -13.9109 94.0084 main 1435 1435 _____P________ -1 -13.9109 94.0084 99 7 11 265
1928081S07099 1928 21 SI WA NOT_NAMED 1928-03-24 12:00:00 NR -14.0624 93.8533 main 1459 1459 _____P________ -1 -14.0624 93.8533 99 7 4 227
1928081S07099 1928 21 SI WA NOT_NAMED 1928-03-24 15:00:00 NR -14.1630 93.7295 main 1481 1481 _____P________ -1 -14.1630 93.7295 99 7 3 233
1928081S07099 1928 21 SI WA NOT_NAMED 1928-03-24 18:00:00 NR -14.2212 93.6321 main 1488 1488 _____P________ -1 -14.2212 93.6321 99 2 244
1928081S07099 1928 21 SI WA NOT_NAMED 1928-03-24 21:00:00 NR -14.2455 93.5556 main 1488 1488 _____P________ -1 -14.2455 93.5556 99 1 260
1928081S07099 1928 21 SI WA NOT_NAMED 1928-03-25 00:00:00 NR -14.2445 93.4950 main 1495 1495 _____P________ -1 -14.2445 93.4950 99 1 280
1928081S07099 1928 21 SI WA NOT_NAMED 1928-03-25 03:00:00 NR -14.2265 93.4448 main 1503 1503 _____P________ -1 -14.2265 93.4448 99 1 297
1928081S07099 1928 21 SI WA NOT_NAMED 1928-03-25 06:00:00 NR -14.2000 93.4000 main 1503 _____O________ -1 -14.2000 93.4000 99 9.90000 1 312

About IBTrACS Database

This database is a web-friendly format of International Best Track Archive for Climate Stewardship (IBTrACS), a global best track data archive curated by NOAA dating back to 1842.

Updated: 2021-10-08